sensor_id;sensor_type;location;lat;lon;timestamp;pressure;altitude;pressure_sealevel;temperature;humidity
30708;BME280;17458;48.958;8.284;2023-07-31T00:02:26;100365.00;;;21.08;56.35
30708;BME280;17458;48.958;8.284;2023-07-31T00:05:10;100366.81;;;21.04;56.14
30708;BME280;17458;48.958;8.284;2023-07-31T00:07:54;100372.06;;;20.87;57.33
30708;BME280;17458;48.958;8.284;2023-07-31T00:10:38;100369.31;;;20.84;57.25
30708;BME280;17458;48.958;8.284;2023-07-31T00:13:22;100369.13;;;20.60;58.97
30708;BME280;17458;48.958;8.284;2023-07-31T00:16:07;100358.25;;;20.54;59.20
30708;BME280;17458;48.958;8.284;2023-07-31T00:18:51;100362.69;;;20.46;59.21
30708;BME280;17458;48.958;8.284;2023-07-31T00:21:35;100344.03;;;20.73;59.15
30708;BME280;17458;48.958;8.284;2023-07-31T00:24:19;100345.50;;;20.38;60.36
30708;BME280;17458;48.958;8.284;2023-07-31T00:27:04;100334.59;;;20.29;60.80
30708;BME280;17458;48.958;8.284;2023-07-31T00:29:48;100336.41;;;20.30;61.10
30708;BME280;17458;48.958;8.284;2023-07-31T00:32:32;100338.94;;;20.14;61.52
30708;BME280;17458;48.958;8.284;2023-07-31T00:35:17;100336.59;;;19.71;62.85
30708;BME280;17458;48.958;8.284;2023-07-31T00:38:01;100342.81;;;19.67;62.23
30708;BME280;17458;48.958;8.284;2023-07-31T00:40:45;100337.41;;;19.65;62.48
30708;BME280;17458;48.958;8.284;2023-07-31T00:43:29;100335.72;;;19.72;62.71
30708;BME280;17458;48.958;8.284;2023-07-31T00:46:13;100340.31;;;19.80;62.09
30708;BME280;17458;48.958;8.284;2023-07-31T00:48:59;100331.16;;;19.68;62.91
30708;BME280;17458;48.958;8.284;2023-07-31T00:51:43;100330.50;;;19.86;62.58
30708;BME280;17458;48.958;8.284;2023-07-31T00:54:27;100326.03;;;19.88;62.13
30708;BME280;17458;48.958;8.284;2023-07-31T00:57:12;100323.38;;;19.91;61.87
30708;BME280;17458;48.958;8.284;2023-07-31T00:59:55;100318.00;;;19.91;61.90
30708;BME280;17458;48.958;8.284;2023-07-31T01:02:40;100319.66;;;19.78;62.28
30708;BME280;17458;48.958;8.284;2023-07-31T01:06:14;100319.47;;;19.67;62.85
30708;BME280;17458;48.958;8.284;2023-07-31T01:08:42;100313.41;;;19.83;62.07
30708;BME280;17458;48.958;8.284;2023-07-31T01:11:33;100304.34;;;19.75;62.41
30708;BME280;17458;48.958;8.284;2023-07-31T01:14:19;100308.50;;;19.51;62.92
30708;BME280;17458;48.958;8.284;2023-07-31T01:17:04;100310.25;;;19.48;62.92
30708;BME280;17458;48.958;8.284;2023-07-31T01:19:48;100309.78;;;19.81;61.90
30708;BME280;17458;48.958;8.284;2023-07-31T01:28:54;100314.31;;;19.84;61.38
30708;BME280;17458;48.958;8.284;2023-07-31T01:31:39;100309.50;;;19.59;62.27
30708;BME280;17458;48.958;8.284;2023-07-31T01:34:24;100307.94;;;19.76;61.13
30708;BME280;17458;48.958;8.284;2023-07-31T01:37:10;100309.09;;;19.99;60.52
30708;BME280;17458;48.958;8.284;2023-07-31T01:39:53;100305.31;;;19.83;60.98
30708;BME280;17458;48.958;8.284;2023-07-31T01:42:37;100304.44;;;19.86;60.78
30708;BME280;17458;48.958;8.284;2023-07-31T01:45:21;100291.94;;;19.90;60.51
30708;BME280;17458;48.958;8.284;2023-07-31T01:48:05;100289.03;;;19.73;60.75
30708;BME280;17458;48.958;8.284;2023-07-31T01:50:49;100294.31;;;19.67;61.37
30708;BME280;17458;48.958;8.284;2023-07-31T01:53:33;100288.00;;;19.62;61.16
30708;BME280;17458;48.958;8.284;2023-07-31T01:56:17;100284.38;;;19.60;61.14
30708;BME280;17458;48.958;8.284;2023-07-31T01:59:01;100271.78;;;19.57;61.65
30708;BME280;17458;48.958;8.284;2023-07-31T02:01:45;100264.25;;;19.33;61.74
30708;BME280;17458;48.958;8.284;2023-07-31T02:04:29;100263.72;;;19.59;60.99
30708;BME280;17458;48.958;8.284;2023-07-31T02:07:12;100269.81;;;19.47;61.72
30708;BME280;17458;48.958;8.284;2023-07-31T02:09:56;100265.91;;;19.22;62.56
30708;BME280;17458;48.958;8.284;2023-07-31T02:12:40;100271.09;;;19.10;62.60
30708;BME280;17458;48.958;8.284;2023-07-31T02:15:24;100263.38;;;19.37;61.56
30708;BME280;17458;48.958;8.284;2023-07-31T02:18:08;100267.09;;;19.44;61.11
30708;BME280;17458;48.958;8.284;2023-07-31T02:20:52;100256.63;;;19.68;60.55
30708;BME280;17458;48.958;8.284;2023-07-31T02:23:36;100260.22;;;19.67;60.23
30708;BME280;17458;48.958;8.284;2023-07-31T02:26:20;100253.72;;;19.52;61.21
30708;BME280;17458;48.958;8.284;2023-07-31T02:29:04;100249.28;;;19.54;60.94
30708;BME280;17458;48.958;8.284;2023-07-31T02:31:48;100244.75;;;19.53;60.66
30708;BME280;17458;48.958;8.284;2023-07-31T02:34:32;100246.91;;;19.13;61.81
30708;BME280;17458;48.958;8.284;2023-07-31T02:37:16;100247.22;;;19.37;61.28
30708;BME280;17458;48.958;8.284;2023-07-31T02:40:00;100249.16;;;19.46;60.07
30708;BME280;17458;48.958;8.284;2023-07-31T02:42:46;100249.97;;;19.40;60.20
30708;BME280;17458;48.958;8.284;2023-07-31T02:45:30;100251.97;;;19.54;60.56
30708;BME280;17458;48.958;8.284;2023-07-31T02:48:14;100260.03;;;19.54;60.63
30708;BME280;17458;48.958;8.284;2023-07-31T02:50:58;100258.16;;;19.46;60.34
30708;BME280;17458;48.958;8.284;2023-07-31T02:53:42;100239.63;;;19.72;58.97
30708;BME280;17458;48.958;8.284;2023-07-31T02:56:26;100243.19;;;19.70;59.28
30708;BME280;17458;48.958;8.284;2023-07-31T02:59:10;100248.72;;;19.83;58.75
30708;BME280;17458;48.958;8.284;2023-07-31T03:01:54;100250.25;;;19.59;59.24
30708;BME280;17458;48.958;8.284;2023-07-31T03:04:38;100241.06;;;19.46;60.19
30708;BME280;17458;48.958;8.284;2023-07-31T03:07:23;100250.38;;;19.71;59.16
30708;BME280;17458;48.958;8.284;2023-07-31T03:10:07;100253.06;;;19.69;59.13
30708;BME280;17458;48.958;8.284;2023-07-31T03:12:51;100255.88;;;19.80;57.88
30708;BME280;17458;48.958;8.284;2023-07-31T03:15:35;100251.41;;;19.83;57.93
30708;BME280;17458;48.958;8.284;2023-07-31T03:18:19;100259.28;;;19.64;59.15
30708;BME280;17458;48.958;8.284;2023-07-31T03:21:04;100243.38;;;19.88;58.20
30708;BME280;17458;48.958;8.284;2023-07-31T03:23:48;100245.16;;;19.86;58.41
30708;BME280;17458;48.958;8.284;2023-07-31T03:26:32;100238.78;;;19.79;57.92
30708;BME280;17458;48.958;8.284;2023-07-31T03:29:16;100242.19;;;19.62;59.41
30708;BME280;17458;48.958;8.284;2023-07-31T03:32:00;100237.84;;;19.73;58.57
30708;BME280;17458;48.958;8.284;2023-07-31T03:34:45;100251.94;;;19.49;59.25
30708;BME280;17458;48.958;8.284;2023-07-31T03:37:29;100247.38;;;19.48;59.43
30708;BME280;17458;48.958;8.284;2023-07-31T03:40:13;100249.25;;;19.52;58.79
30708;BME280;17458;48.958;8.284;2023-07-31T03:42:57;100246.81;;;19.72;58.45
30708;BME280;17458;48.958;8.284;2023-07-31T03:45:41;100240.97;;;19.40;59.45
30708;BME280;17458;48.958;8.284;2023-07-31T03:48:25;100250.25;;;19.59;59.09
30708;BME280;17458;48.958;8.284;2023-07-31T03:51:09;100238.47;;;19.49;59.60
30708;BME280;17458;48.958;8.284;2023-07-31T03:53:53;100244.91;;;19.62;59.04
30708;BME280;17458;48.958;8.284;2023-07-31T03:56:37;100248.38;;;19.53;59.42
30708;BME280;17458;48.958;8.284;2023-07-31T03:59:22;100245.03;;;19.74;58.85
30708;BME280;17458;48.958;8.284;2023-07-31T04:02:06;100248.59;;;19.71;58.78
30708;BME280;17458;48.958;8.284;2023-07-31T04:04:50;100248.22;;;19.42;60.13
30708;BME280;17458;48.958;8.284;2023-07-31T04:07:34;100246.50;;;19.47;59.62
30708;BME280;17458;48.958;8.284;2023-07-31T04:10:18;100242.19;;;19.62;59.80
30708;BME280;17458;48.958;8.284;2023-07-31T04:13:01;100240.16;;;19.45;60.06
30708;BME280;17458;48.958;8.284;2023-07-31T04:15:49;100237.38;;;19.38;59.94
30708;BME280;17458;48.958;8.284;2023-07-31T04:18:34;100236.38;;;19.30;60.77
30708;BME280;17458;48.958;8.284;2023-07-31T04:21:18;100248.38;;;19.55;59.82
30708;BME280;17458;48.958;8.284;2023-07-31T04:24:02;100243.56;;;19.29;60.83
30708;BME280;17458;48.958;8.284;2023-07-31T04:26:46;100245.44;;;19.35;60.62
30708;BME280;17458;48.958;8.284;2023-07-31T04:29:31;100246.44;;;19.44;60.29
30708;BME280;17458;48.958;8.284;2023-07-31T04:32:14;100243.41;;;19.19;61.40
30708;BME280;17458;48.958;8.284;2023-07-31T04:35:03;100231.75;;;19.18;61.55
30708;BME280;17458;48.958;8.284;2023-07-31T04:37:47;100228.38;;;19.37;61.23
30708;BME280;17458;48.958;8.284;2023-07-31T04:40:32;100223.09;;;19.45;60.75
30708;BME280;17458;48.958;8.284;2023-07-31T04:43:16;100229.50;;;19.53;60.59
30708;BME280;17458;48.958;8.284;2023-07-31T04:46:00;100224.84;;;19.41;60.86
30708;BME280;17458;48.958;8.284;2023-07-31T04:48:44;100231.13;;;19.42;60.76
30708;BME280;17458;48.958;8.284;2023-07-31T04:51:28;100230.31;;;19.46;60.64
30708;BME280;17458;48.958;8.284;2023-07-31T04:54:12;100231.88;;;19.29;61.36
30708;BME280;17458;48.958;8.284;2023-07-31T04:56:58;100229.09;;;19.21;61.49
30708;BME280;17458;48.958;8.284;2023-07-31T04:59:42;100224.22;;;19.59;60.53
30708;BME280;17458;48.958;8.284;2023-07-31T05:02:26;100225.69;;;19.37;60.60
30708;BME280;17458;48.958;8.284;2023-07-31T05:05:10;100225.84;;;19.48;60.68
30708;BME280;17458;48.958;8.284;2023-07-31T05:07:54;100218.81;;;19.59;60.47
30708;BME280;17458;48.958;8.284;2023-07-31T05:10:38;100215.34;;;19.71;60.46
30708;BME280;17458;48.958;8.284;2023-07-31T05:13:22;100218.16;;;19.78;60.06
30708;BME280;17458;48.958;8.284;2023-07-31T05:16:06;100213.69;;;19.83;60.51
30708;BME280;17458;48.958;8.284;2023-07-31T05:18:50;100214.84;;;20.10;59.61
30708;BME280;17458;48.958;8.284;2023-07-31T05:21:34;100219.28;;;20.03;59.73
30708;BME280;17458;48.958;8.284;2023-07-31T05:24:18;100219.44;;;20.18;59.21
30708;BME280;17458;48.958;8.284;2023-07-31T05:27:02;100215.66;;;20.00;59.61
30708;BME280;17458;48.958;8.284;2023-07-31T05:29:46;100215.16;;;20.42;58.92
30708;BME280;17458;48.958;8.284;2023-07-31T05:32:30;100223.88;;;20.13;58.92
30708;BME280;17458;48.958;8.284;2023-07-31T05:35:14;100219.34;;;20.09;59.84
30708;BME280;17458;48.958;8.284;2023-07-31T05:37:58;100221.31;;;20.29;59.67
30708;BME280;17458;48.958;8.284;2023-07-31T05:40:42;100213.03;;;20.09;59.06
30708;BME280;17458;48.958;8.284;2023-07-31T05:43:27;100222.31;;;20.37;59.33
30708;BME280;17458;48.958;8.284;2023-07-31T05:46:11;100214.94;;;20.22;58.94
30708;BME280;17458;48.958;8.284;2023-07-31T05:48:55;100218.81;;;20.47;58.66
30708;BME280;17458;48.958;8.284;2023-07-31T05:51:39;100218.03;;;20.66;58.00
30708;BME280;17458;48.958;8.284;2023-07-31T05:54:23;100211.75;;;20.63;58.25
30708;BME280;17458;48.958;8.284;2023-07-31T05:57:07;100211.72;;;20.61;58.00
30708;BME280;17458;48.958;8.284;2023-07-31T05:59:51;100204.53;;;20.65;57.89
30708;BME280;17458;48.958;8.284;2023-07-31T06:02:37;100211.78;;;20.72;58.16
30708;BME280;17458;48.958;8.284;2023-07-31T06:05:22;100203.72;;;20.73;58.53
30708;BME280;17458;48.958;8.284;2023-07-31T06:08:05;100208.25;;;20.83;57.04
30708;BME280;17458;48.958;8.284;2023-07-31T06:10:49;100201.28;;;21.22;56.35
30708;BME280;17458;48.958;8.284;2023-07-31T06:13:33;100208.38;;;21.02;57.50
30708;BME280;17458;48.958;8.284;2023-07-31T06:16:17;100206.59;;;21.10;55.80
30708;BME280;17458;48.958;8.284;2023-07-31T06:19:01;100209.53;;;21.46;55.70
30708;BME280;17458;48.958;8.284;2023-07-31T06:21:45;100213.88;;;21.18;56.50
30708;BME280;17458;48.958;8.284;2023-07-31T06:24:30;100216.75;;;21.53;56.28
30708;BME280;17458;48.958;8.284;2023-07-31T06:27:14;100212.22;;;21.43;56.10
30708;BME280;17458;48.958;8.284;2023-07-31T06:29:57;100211.34;;;21.56;55.78
30708;BME280;17458;48.958;8.284;2023-07-31T06:32:41;100214.97;;;21.62;55.63
30708;BME280;17458;48.958;8.284;2023-07-31T06:35:26;100207.75;;;21.64;55.61
30708;BME280;17458;48.958;8.284;2023-07-31T06:38:10;100205.97;;;21.67;55.92
30708;BME280;17458;48.958;8.284;2023-07-31T06:40:55;100205.19;;;22.18;54.87
30708;BME280;17458;48.958;8.284;2023-07-31T06:43:39;100209.69;;;22.18;55.72
30708;BME280;17458;48.958;8.284;2023-07-31T06:46:23;100216.91;;;22.25;54.39
30708;BME280;17458;48.958;8.284;2023-07-31T06:49:07;100209.63;;;21.86;55.19
30708;BME280;17458;48.958;8.284;2023-07-31T06:51:51;100210.47;;;21.67;55.33
30708;BME280;17458;48.958;8.284;2023-07-31T06:54:35;100211.31;;;21.52;56.18
30708;BME280;17458;48.958;8.284;2023-07-31T06:57:19;100203.22;;;21.50;55.78
30708;BME280;17458;48.958;8.284;2023-07-31T07:00:03;100207.78;;;21.71;55.07
30708;BME280;17458;48.958;8.284;2023-07-31T07:02:48;100198.72;;;21.54;55.60
30708;BME280;17458;48.958;8.284;2023-07-31T07:05:33;100208.72;;;21.84;54.97
30708;BME280;17458;48.958;8.284;2023-07-31T07:08:16;100201.47;;;21.71;55.24
30708;BME280;17458;48.958;8.284;2023-07-31T07:11:01;100199.66;;;21.76;55.95
30708;BME280;17458;48.958;8.284;2023-07-31T07:13:45;100203.25;;;21.56;55.60
30708;BME280;17458;48.958;8.284;2023-07-31T07:16:29;100188.81;;;21.54;55.43
30708;BME280;17458;48.958;8.284;2023-07-31T07:19:13;100194.38;;;22.11;55.60
30708;BME280;17458;48.958;8.284;2023-07-31T07:21:57;100195.22;;;21.85;54.71
30708;BME280;17458;48.958;8.284;2023-07-31T07:24:43;100194.34;;;22.47;54.65
30708;BME280;17458;48.958;8.284;2023-07-31T07:27:30;100188.94;;;22.47;53.42
30708;BME280;17458;48.958;8.284;2023-07-31T07:30:15;100197.94;;;22.60;53.51
30708;BME280;17458;48.958;8.284;2023-07-31T07:32:59;100197.06;;;22.34;53.92
30708;BME280;17458;48.958;8.284;2023-07-31T07:35:43;100177.19;;;22.68;53.71
30708;BME280;17458;48.958;8.284;2023-07-31T07:38:26;100181.72;;;22.69;53.33
30708;BME280;17458;48.958;8.284;2023-07-31T07:41:10;100184.44;;;22.37;53.92
30708;BME280;17458;48.958;8.284;2023-07-31T07:43:55;100178.03;;;23.08;52.19
30708;BME280;17458;48.958;8.284;2023-07-31T07:46:39;100163.69;;;22.38;53.09
30708;BME280;17458;48.958;8.284;2023-07-31T07:49:23;100166.28;;;23.09;52.00
30708;BME280;17458;48.958;8.284;2023-07-31T07:52:07;100159.09;;;22.94;53.63
30708;BME280;17458;48.958;8.284;2023-07-31T07:54:51;100170.88;;;22.72;52.30
30708;BME280;17458;48.958;8.284;2023-07-31T07:57:35;100177.19;;;22.65;53.44
30708;BME280;17458;48.958;8.284;2023-07-31T08:00:19;100170.88;;;22.69;52.27
30708;BME280;17458;48.958;8.284;2023-07-31T08:03:03;100184.16;;;23.48;52.48
30708;BME280;17458;48.958;8.284;2023-07-31T08:05:47;100180.66;;;23.28;52.21
30708;BME280;17458;48.958;8.284;2023-07-31T08:08:31;100178.03;;;23.05;54.15
30708;BME280;17458;48.958;8.284;2023-07-31T08:11:15;100185.25;;;23.08;52.61
30708;BME280;17458;48.958;8.284;2023-07-31T08:13:59;100180.78;;;22.75;53.74
30708;BME280;17458;48.958;8.284;2023-07-31T08:16:43;100174.25;;;23.44;51.75
30708;BME280;17458;48.958;8.284;2023-07-31T08:19:27;100167.88;;;23.59;52.52
30708;BME280;17458;48.958;8.284;2023-07-31T08:22:10;100168.72;;;23.70;51.37
30708;BME280;17458;48.958;8.284;2023-07-31T08:24:55;100173.25;;;23.70;51.08
30708;BME280;17458;48.958;8.284;2023-07-31T08:27:43;100173.16;;;23.85;51.60
30708;BME280;17458;48.958;8.284;2023-07-31T08:30:26;100171.56;;;23.38;51.17
30708;BME280;17458;48.958;8.284;2023-07-31T08:33:10;100177.78;;;23.69;51.64
30708;BME280;17458;48.958;8.284;2023-07-31T08:35:54;100159.53;;;23.89;49.96
30708;BME280;17458;48.958;8.284;2023-07-31T08:38:38;100159.66;;;23.73;49.83
30708;BME280;17458;48.958;8.284;2023-07-31T08:41:23;100152.31;;;23.90;50.15
30708;BME280;17458;48.958;8.284;2023-07-31T08:44:07;100143.50;;;23.48;51.01
30708;BME280;17458;48.958;8.284;2023-07-31T08:46:52;100142.44;;;23.81;49.66
30708;BME280;17458;48.958;8.284;2023-07-31T08:49:38;100151.69;;;24.63;50.67
30708;BME280;17458;48.958;8.284;2023-07-31T08:52:24;100147.88;;;24.82;48.38
30708;BME280;17458;48.958;8.284;2023-07-31T08:55:08;100154.44;;;24.58;48.40
30708;BME280;17458;48.958;8.284;2023-07-31T08:57:52;100151.53;;;24.78;48.92
30708;BME280;17458;48.958;8.284;2023-07-31T09:00:40;100140.13;;;24.44;49.84
30708;BME280;17458;48.958;8.284;2023-07-31T09:03:25;100142.50;;;24.74;48.53
30708;BME280;17458;48.958;8.284;2023-07-31T09:06:10;100125.94;;;25.00;48.85
30708;BME280;17458;48.958;8.284;2023-07-31T09:08:55;100126.94;;;24.95;48.38
30708;BME280;17458;48.958;8.284;2023-07-31T09:11:39;100127.66;;;25.75;47.42
30708;BME280;17458;48.958;8.284;2023-07-31T09:14:25;100125.72;;;25.83;47.71
30708;BME280;17458;48.958;8.284;2023-07-31T09:17:09;100113.66;;;26.01;47.31
30708;BME280;17458;48.958;8.284;2023-07-31T09:19:54;100112.16;;;25.82;46.90
30708;BME280;17458;48.958;8.284;2023-07-31T09:22:39;100108.66;;;25.07;47.20
30708;BME280;17458;48.958;8.284;2023-07-31T09:25:25;100098.78;;;24.99;45.93
30708;BME280;17458;48.958;8.284;2023-07-31T09:28:10;100094.31;;;24.96;46.79
30708;BME280;17458;48.958;8.284;2023-07-31T09:30:54;100086.91;;;25.11;45.67
30708;BME280;17458;48.958;8.284;2023-07-31T09:33:54;100096.97;;;25.68;45.03
30708;BME280;17458;48.958;8.284;2023-07-31T09:36:49;100092.72;;;25.46;45.00
30708;BME280;17458;48.958;8.284;2023-07-31T09:39:45;100092.56;;;24.89;45.94
30708;BME280;17458;48.958;8.284;2023-07-31T09:42:30;100086.75;;;25.21;46.02
30708;BME280;17458;48.958;8.284;2023-07-31T09:45:18;100089.97;;;25.49;44.85
30708;BME280;17458;48.958;8.284;2023-07-31T09:48:15;100084.38;;;25.57;45.17
30708;BME280;17458;48.958;8.284;2023-07-31T09:51:04;100075.91;;;25.18;45.32
30708;BME280;17458;48.958;8.284;2023-07-31T09:53:50;100084.00;;;25.23;45.04
30708;BME280;17458;48.958;8.284;2023-07-31T09:56:34;100090.63;;;24.99;45.35
30708;BME280;17458;48.958;8.284;2023-07-31T09:59:20;100089.63;;;25.72;45.80
30708;BME280;17458;48.958;8.284;2023-07-31T10:02:04;100081.44;;;25.73;45.02
30708;BME280;17458;48.958;8.284;2023-07-31T10:04:55;100077.09;;;26.16;44.51
30708;BME280;17458;48.958;8.284;2023-07-31T10:07:53;100073.25;;;26.30;45.23
30708;BME280;17458;48.958;8.284;2023-07-31T10:10:41;100064.84;;;26.42;44.40
30708;BME280;17458;48.958;8.284;2023-07-31T10:13:27;100054.63;;;26.04;43.53
30708;BME280;17458;48.958;8.284;2023-07-31T10:16:12;100060.81;;;26.14;44.51
30708;BME280;17458;48.958;8.284;2023-07-31T10:18:56;100058.94;;;26.16;44.80
30708;BME280;17458;48.958;8.284;2023-07-31T10:21:42;100076.59;;;26.44;44.54
30708;BME280;17458;48.958;8.284;2023-07-31T10:24:26;100067.09;;;26.67;46.54
30708;BME280;17458;48.958;8.284;2023-07-31T10:27:10;100072.78;;;26.53;43.65
30708;BME280;17458;48.958;8.284;2023-07-31T10:29:56;100071.84;;;26.06;45.37
30708;BME280;17458;48.958;8.284;2023-07-31T10:32:44;100071.25;;;26.40;45.35
30708;BME280;17458;48.958;8.284;2023-07-31T10:35:28;100069.53;;;25.82;45.91
30708;BME280;17458;48.958;8.284;2023-07-31T10:38:12;100063.53;;;25.57;46.21
30708;BME280;17458;48.958;8.284;2023-07-31T10:41:08;100065.50;;;25.48;45.78
30708;BME280;17458;48.958;8.284;2023-07-31T10:43:55;100070.03;;;25.49;46.66
30708;BME280;17458;48.958;8.284;2023-07-31T10:46:41;100076.19;;;25.63;48.27
30708;BME280;17458;48.958;8.284;2023-07-31T10:49:29;100062.59;;;25.60;45.83
30708;BME280;17458;48.958;8.284;2023-07-31T10:52:20;100069.13;;;26.56;44.85
30708;BME280;17458;48.958;8.284;2023-07-31T10:58:11;100071.47;;;26.26;44.93
30708;BME280;17458;48.958;8.284;2023-07-31T11:00:57;100061.28;;;25.87;44.31
30708;BME280;17458;48.958;8.284;2023-07-31T11:03:49;100064.66;;;25.44;45.79
30708;BME280;17458;48.958;8.284;2023-07-31T11:06:36;100058.03;;;25.65;46.16
30708;BME280;17458;48.958;8.284;2023-07-31T11:09:20;100056.63;;;25.95;45.25
30708;BME280;17458;48.958;8.284;2023-07-31T11:12:04;100053.94;;;25.93;45.95
30708;BME280;17458;48.958;8.284;2023-07-31T11:14:55;100057.13;;;26.17;46.10
30708;BME280;17458;48.958;8.284;2023-07-31T11:17:39;100044.88;;;25.91;45.36
30708;BME280;17458;48.958;8.284;2023-07-31T11:20:26;100041.19;;;25.40;46.50
30708;BME280;17458;48.958;8.284;2023-07-31T11:23:11;100033.13;;;25.89;45.75
30708;BME280;17458;48.958;8.284;2023-07-31T11:25:59;100043.44;;;26.69;45.53
30708;BME280;17458;48.958;8.284;2023-07-31T11:28:46;100039.25;;;26.53;44.04
30708;BME280;17458;48.958;8.284;2023-07-31T11:31:30;100036.72;;;25.91;45.97
30708;BME280;17458;48.958;8.284;2023-07-31T11:34:14;100034.88;;;26.44;45.41
30708;BME280;17458;48.958;8.284;2023-07-31T11:36:58;100031.47;;;25.82;45.16
30708;BME280;17458;48.958;8.284;2023-07-31T11:39:42;100023.34;;;26.30;46.53
30708;BME280;17458;48.958;8.284;2023-07-31T11:42:26;100017.16;;;26.20;45.52
30708;BME280;17458;48.958;8.284;2023-07-31T11:45:10;100022.53;;;26.69;45.90
30708;BME280;17458;48.958;8.284;2023-07-31T11:47:55;100020.50;;;25.85;45.78
30708;BME280;17458;48.958;8.284;2023-07-31T11:50:39;100012.66;;;25.68;45.32
30708;BME280;17458;48.958;8.284;2023-07-31T11:53:28;100017.13;;;25.71;47.32
30708;BME280;17458;48.958;8.284;2023-07-31T11:56:17;100012.03;;;26.02;46.88
30708;BME280;17458;48.958;8.284;2023-07-31T11:59:02;100000.81;;;25.69;47.48
30708;BME280;17458;48.958;8.284;2023-07-31T12:01:47;99990.41;;;25.96;47.26
30708;BME280;17458;48.958;8.284;2023-07-31T12:04:33;99988.22;;;26.14;44.63
30708;BME280;17458;48.958;8.284;2023-07-31T12:07:18;99990.28;;;26.50;45.82
30708;BME280;17458;48.958;8.284;2023-07-31T12:10:02;99985.97;;;25.90;45.37
30708;BME280;17458;48.958;8.284;2023-07-31T12:12:56;99987.97;;;26.27;46.15
30708;BME280;17458;48.958;8.284;2023-07-31T12:15:44;99980.81;;;26.23;45.37
30708;BME280;17458;48.958;8.284;2023-07-31T12:18:33;99982.56;;;27.11;45.46
30708;BME280;17458;48.958;8.284;2023-07-31T12:21:19;99972.94;;;27.72;44.92
30708;BME280;17458;48.958;8.284;2023-07-31T12:24:03;99974.50;;;27.45;43.75
30708;BME280;17458;48.958;8.284;2023-07-31T12:26:48;99972.06;;;27.33;43.20
30708;BME280;17458;48.958;8.284;2023-07-31T12:29:36;99971.78;;;27.08;45.82
30708;BME280;17458;48.958;8.284;2023-07-31T12:32:24;99968.22;;;27.79;44.25
30708;BME280;17458;48.958;8.284;2023-07-31T12:35:09;99975.28;;;27.12;44.54
30708;BME280;17458;48.958;8.284;2023-07-31T12:37:52;99962.78;;;27.03;44.87
30708;BME280;17458;48.958;8.284;2023-07-31T12:40:41;99967.47;;;26.97;45.74
30708;BME280;17458;48.958;8.284;2023-07-31T12:43:25;99956.34;;;26.66;44.98
30708;BME280;17458;48.958;8.284;2023-07-31T12:46:09;99967.66;;;26.88;43.59
30708;BME280;17458;48.958;8.284;2023-07-31T12:48:53;99948.78;;;27.20;44.63
30708;BME280;17458;48.958;8.284;2023-07-31T12:51:37;99942.84;;;27.01;45.17
30708;BME280;17458;48.958;8.284;2023-07-31T12:54:21;99953.41;;;27.15;44.76
30708;BME280;17458;48.958;8.284;2023-07-31T12:57:05;99936.47;;;26.61;45.38
30708;BME280;17458;48.958;8.284;2023-07-31T12:59:49;99931.69;;;26.27;46.77
30708;BME280;17458;48.958;8.284;2023-07-31T13:02:33;99926.69;;;26.07;47.19
30708;BME280;17458;48.958;8.284;2023-07-31T13:05:17;99922.88;;;26.16;45.98
30708;BME280;17458;48.958;8.284;2023-07-31T13:08:03;99919.53;;;26.00;47.10
30708;BME280;17458;48.958;8.284;2023-07-31T13:10:47;99912.19;;;26.07;46.73
30708;BME280;17458;48.958;8.284;2023-07-31T13:13:31;99909.22;;;26.18;45.84
30708;BME280;17458;48.958;8.284;2023-07-31T13:16:15;99907.09;;;26.35;46.23
30708;BME280;17458;48.958;8.284;2023-07-31T13:18:59;99901.47;;;26.42;45.72
30708;BME280;17458;48.958;8.284;2023-07-31T13:21:43;99902.38;;;26.41;46.84
30708;BME280;17458;48.958;8.284;2023-07-31T13:24:27;99899.56;;;26.01;46.72
30708;BME280;17458;48.958;8.284;2023-07-31T13:27:11;99902.13;;;26.10;47.04
30708;BME280;17458;48.958;8.284;2023-07-31T13:29:55;99888.56;;;25.61;46.52
30708;BME280;17458;48.958;8.284;2023-07-31T13:32:39;99890.94;;;25.80;47.42
30708;BME280;17458;48.958;8.284;2023-07-31T13:35:23;99878.03;;;26.35;46.33
30708;BME280;17458;48.958;8.284;2023-07-31T13:38:06;99883.09;;;26.10;47.94
30708;BME280;17458;48.958;8.284;2023-07-31T13:40:50;99891.50;;;26.81;45.50
30708;BME280;17458;48.958;8.284;2023-07-31T13:43:34;99893.56;;;27.10;44.68
30708;BME280;17458;48.958;8.284;2023-07-31T13:46:18;99878.88;;;26.79;45.12
30708;BME280;17458;48.958;8.284;2023-07-31T13:49:02;99886.59;;;26.59;45.53
30708;BME280;17458;48.958;8.284;2023-07-31T13:51:46;99879.72;;;26.81;45.02
30708;BME280;17458;48.958;8.284;2023-07-31T13:54:30;99877.34;;;26.66;47.46
30708;BME280;17458;48.958;8.284;2023-07-31T13:57:14;99880.88;;;26.69;45.18
30708;BME280;17458;48.958;8.284;2023-07-31T13:59:57;99873.25;;;26.46;46.25
30708;BME280;17458;48.958;8.284;2023-07-31T14:02:41;99872.72;;;26.28;47.33
30708;BME280;17458;48.958;8.284;2023-07-31T14:05:25;99871.50;;;26.82;45.06
30708;BME280;17458;48.958;8.284;2023-07-31T14:08:09;99881.66;;;26.76;45.75
30708;BME280;17458;48.958;8.284;2023-07-31T14:10:53;99873.38;;;26.80;45.97
30708;BME280;17458;48.958;8.284;2023-07-31T14:13:37;99875.06;;;26.46;46.51
30708;BME280;17458;48.958;8.284;2023-07-31T14:16:21;99868.38;;;26.19;46.46
30708;BME280;17458;48.958;8.284;2023-07-31T14:19:06;99876.16;;;26.39;46.37
30708;BME280;17458;48.958;8.284;2023-07-31T14:21:51;99871.44;;;26.45;47.04
30708;BME280;17458;48.958;8.284;2023-07-31T14:24:35;99877.56;;;26.57;46.21
30708;BME280;17458;48.958;8.284;2023-07-31T14:27:19;99879.19;;;26.65;45.87
30708;BME280;17458;48.958;8.284;2023-07-31T14:30:04;99869.31;;;26.17;46.69
30708;BME280;17458;48.958;8.284;2023-07-31T14:32:48;99866.81;;;26.89;46.83
30708;BME280;17458;48.958;8.284;2023-07-31T14:35:32;99853.56;;;27.11;46.10